Time;durP1;ratioP1;P1;durP2;ratioP2;P2;SDS_P1;SDS_P2;PMS_P1;PMS_P2;Temp;Humidity;BMP_temperature;BMP_pressure;BME280_temperature;BME280_humidity;BME280_pressure;Samples;Min_cycle;Max_cycle;Signal;HPM_P1;HPM_P2
2023/02/03 05:04:31;;;;;;;0.63;0.63;;;6.60;99.90;;;;;;5773412;22;20248;-72
2023/02/03 05:06:57;;;;;;;0.87;0.83;;;6.60;99.90;;;;;;5033053;28;20511;-71
2023/02/03 05:09:26;;;;;;;0.80;0.63;;;6.50;99.90;;;;;;5027613;28;20627;-71
2023/02/03 05:11:52;;;;;;;1.40;0.98;;;6.50;99.90;;;;;;5013583;28;20530;-72
2023/02/03 05:14:18;;;;;;;3.70;0.90;;;6.50;99.90;;;;;;5023710;28;20278;-72
2023/02/03 05:16:43;;;;;;;0.70;0.70;;;6.50;99.90;;;;;;5031825;28;20170;-71
2023/02/03 05:19:09;;;;;;;1.57;1.00;;;6.50;99.90;;;;;;5022365;28;20275;-71
2023/02/03 05:21:35;;;;;;;1.27;1.17;;;6.50;99.90;;;;;;5013258;28;20630;-71
2023/02/03 05:24:02;;;;;;;3.80;0.80;;;6.50;99.90;;;;;;5020062;28;20299;-72
2023/02/03 05:26:27;;;;;;;0.73;0.73;;;6.50;99.90;;;;;;5033249;28;20255;-73
2023/02/03 05:28:53;;;;;;;1.00;1.00;;;6.50;99.90;;;;;;5032972;28;20651;-71
2023/02/03 05:31:18;;;;;;;3.87;1.07;;;6.50;99.90;;;;;;5033423;28;20169;-72
2023/02/03 05:33:44;;;;;;;1.00;0.90;;;6.60;99.90;;;;;;5031116;28;20654;-72
2023/02/03 05:36:09;;;;;;;0.90;0.90;;;6.50;99.90;;;;;;5016681;28;20179;-71
2023/02/03 05:38:35;;;;;;;1.00;0.70;;;6.50;99.90;;;;;;5034532;28;20178;-70
2023/02/03 05:43:45;;;;;;;0.60;0.60;;;6.50;99.90;;;;;;5017612;28;20347;-72
2023/02/03 05:46:10;;;;;;;0.67;0.67;;;6.50;99.90;;;;;;5015627;28;20664;-72
2023/02/03 05:48:36;;;;;;;0.70;0.70;;;6.50;99.90;;;;;;5032632;28;20180;-72
2023/02/03 05:51:01;;;;;;;1.60;0.90;;;6.50;99.90;;;;;;5036715;28;20178;-71
2023/02/03 05:53:27;;;;;;;0.53;0.53;;;6.50;99.90;;;;;;5018235;28;20213;-71
2023/02/03 05:55:53;;;;;;;1.13;0.80;;;6.50;99.90;;;;;;5016766;28;20168;-70
2023/02/03 05:58:19;;;;;;;1.57;1.47;;;6.60;99.90;;;;;;5030776;28;20227;-72
2023/02/03 06:00:46;;;;;;;0.80;0.80;;;6.60;99.90;;;;;;5036064;28;20274;-71
2023/02/03 06:03:11;;;;;;;0.73;0.73;;;6.60;99.90;;;;;;5022465;28;20182;-71
2023/02/03 06:05:39;;;;;;;0.50;0.50;;;6.60;99.90;;;;;;5015518;28;20215;-72
2023/02/03 06:08:06;;;;;;;4.07;0.80;;;6.60;99.90;;;;;;5016240;28;20171;-72
2023/02/03 06:10:32;;;;;;;1.98;0.70;;;6.50;99.90;;;;;;5019816;28;20186;-72
2023/02/03 06:12:58;;;;;;;1.20;0.77;;;6.60;99.90;;;;;;5034541;28;20235;-74
2023/02/03 06:15:23;;;;;;;0.73;0.73;;;6.60;99.90;;;;;;5015469;28;20602;-75
2023/02/03 06:17:49;;;;;;;0.77;0.77;;;6.60;99.90;;;;;;5015131;28;20177;-73
2023/02/03 06:20:17;;;;;;;0.50;0.50;;;6.60;99.90;;;;;;5015045;28;20239;-75
2023/02/03 06:22:44;;;;;;;1.30;1.20;;;6.60;99.90;;;;;;5015522;28;20200;-73
2023/02/03 06:25:10;;;;;;;3.05;1.55;;;6.60;99.90;;;;;;5016034;28;20572;-74
2023/02/03 06:27:36;;;;;;;1.50;1.40;;;6.60;99.90;;;;;;5014801;28;20175;-73
2023/02/03 06:30:02;;;;;;;1.43;1.17;;;6.60;99.90;;;;;;5019411;28;20628;-73
2023/02/03 06:32:28;;;;;;;0.80;0.80;;;6.60;99.90;;;;;;5015896;28;20417;-72
2023/02/03 06:34:53;;;;;;;0.93;0.90;;;6.60;99.90;;;;;;5015488;28;20200;-69
2023/02/03 06:37:19;;;;;;;0.97;0.80;;;6.60;99.90;;;;;;5015408;28;20181;-69
2023/02/03 06:39:44;;;;;;;1.10;1.00;;;6.60;99.90;;;;;;5014229;28;20182;-70
2023/02/03 06:42:11;;;;;;;1.07;0.90;;;6.60;99.90;;;;;;5018003;28;20199;-70
2023/02/03 06:44:36;;;;;;;1.27;1.20;;;6.50;99.90;;;;;;5019373;28;20685;-70
2023/02/03 06:47:02;;;;;;;1.13;1.00;;;6.50;99.90;;;;;;5017655;28;20174;-70
2023/02/03 06:49:28;;;;;;;1.77;1.00;;;6.50;99.90;;;;;;5025770;28;20284;-69
2023/02/03 06:51:54;;;;;;;2.20;1.17;;;6.50;99.90;;;;;;5019913;28;20166;-70
2023/02/03 06:54:20;;;;;;;0.85;0.85;;;6.50;99.90;;;;;;5034888;28;20242;-70
2023/02/03 06:56:46;;;;;;;1.00;0.93;;;6.50;99.90;;;;;;5031972;28;20182;-71
2023/02/03 06:59:12;;;;;;;1.23;1.23;;;6.50;99.90;;;;;;5015252;28;20181;-70
2023/02/03 07:01:37;;;;;;;1.77;1.57;;;6.50;99.90;;;;;;5023804;28;20188;-70
2023/02/03 07:04:03;;;;;;;2.63;1.20;;;6.50;99.90;;;;;;5015201;28;20442;-70
2023/02/03 07:06:32;;;;;;;0.90;0.90;;;6.60;99.90;;;;;;5014836;28;20215;-70
2023/02/03 07:08:59;;;;;;;1.10;1.00;;;6.60;99.90;;;;;;5014531;28;20210;-71
2023/02/03 07:11:25;;;;;;;1.05;0.80;;;6.60;99.90;;;;;;5015046;28;20172;-70
2023/02/03 07:13:52;;;;;;;0.88;0.80;;;6.70;99.90;;;;;;5014833;28;20322;-71
2023/02/03 07:16:18;;;;;;;1.10;1.10;;;6.60;99.90;;;;;;5015210;28;20206;-69
2023/02/03 07:18:44;;;;;;;3.87;1.10;;;6.60;99.90;;;;;;5015084;28;20190;-69
2023/02/03 07:21:11;;;;;;;1.17;1.17;;;6.60;99.90;;;;;;5014962;28;20409;-70
2023/02/03 07:23:37;;;;;;;2.30;1.73;;;6.70;99.90;;;;;;5014380;28;20290;-71
2023/02/03 07:26:04;;;;;;;0.80;0.80;;;6.70;99.90;;;;;;5014845;28;20220;-70
2023/02/03 07:28:31;;;;;;;0.95;0.90;;;6.70;99.90;;;;;;5014938;28;20177;-70
2023/02/03 07:30:56;;;;;;;2.75;1.00;;;6.70;99.90;;;;;;5014766;28;20209;-66
2023/02/03 07:33:22;;;;;;;0.90;0.90;;;6.60;99.90;;;;;;5014532;28;20201;-70
2023/02/03 07:35:58;;;;;;;0.80;0.80;;;6.70;99.90;;;;;;5014604;28;20280;-69
2023/02/03 07:38:26;;;;;;;3.63;1.00;;;6.70;99.90;;;;;;5013028;28;20197;-73
2023/02/03 07:40:53;;;;;;;1.58;1.48;;;6.70;99.90;;;;;;5014762;28;20281;-71
2023/02/03 07:43:19;;;;;;;1.20;1.20;;;6.70;99.90;;;;;;5014148;28;20197;-74
2023/02/03 07:45:45;;;;;;;0.90;0.90;;;6.70;99.90;;;;;;5012551;28;20182;-74
2023/02/03 07:48:11;;;;;;;1.33;0.93;;;6.70;99.90;;;;;;4995533;28;20381;-73
2023/02/03 07:50:37;;;;;;;1.55;1.45;;;6.70;99.90;;;;;;5012914;28;20814;-74
2023/02/03 07:53:03;;;;;;;1.42;1.33;;;6.70;99.90;;;;;;5013023;28;20679;-74
2023/02/03 07:55:29;;;;;;;0.73;0.73;;;6.70;99.90;;;;;;5013448;28;20190;-73
2023/02/03 07:57:56;;;;;;;1.37;1.00;;;6.70;99.90;;;;;;5046210;28;20455;-72
2023/02/03 08:00:22;;;;;;;1.33;1.23;;;6.70;99.90;;;;;;5045937;28;20496;-72
2023/02/03 08:02:48;;;;;;;1.85;1.63;;;6.80;99.90;;;;;;5013814;28;20221;-77
2023/02/03 08:05:14;;;;;;;0.90;0.90;;;6.80;99.90;;;;;;5014130;28;20202;-73
2023/02/03 08:07:40;;;;;;;1.17;1.10;;;6.80;99.90;;;;;;5014265;28;20401;-73
2023/02/03 08:10:07;;;;;;;1.00;1.00;;;6.80;99.90;;;;;;5013077;28;20179;-72
2023/02/03 08:12:33;;;;;;;1.13;1.02;;;6.80;99.90;;;;;;5014293;28;20647;-75
2023/02/03 08:14:59;;;;;;;2.63;1.00;;;6.80;99.90;;;;;;5013523;28;20201;-72
2023/02/03 08:17:25;;;;;;;1.83;1.73;;;6.80;99.90;;;;;;5014211;28;20480;-72
2023/02/03 08:19:50;;;;;;;1.27;1.13;;;6.80;99.90;;;;;;5013738;28;20855;-74
2023/02/03 08:22:16;;;;;;;1.77;1.10;;;6.90;99.90;;;;;;5013773;28;20179;-74
2023/02/03 08:24:44;;;;;;;1.25;1.20;;;7.00;99.90;;;;;;5013578;28;20264;-76
2023/02/03 08:27:15;;;;;;;1.73;1.00;;;7.00;99.90;;;;;;5045538;28;20194;-73
2023/02/03 08:29:42;;;;;;;2.90;1.55;;;7.10;99.90;;;;;;5014007;28;20170;-74
2023/02/03 08:32:18;;;;;;;1.70;1.60;;;7.10;99.90;;;;;;5012411;28;20178;-73
2023/02/03 08:34:44;;;;;;;1.83;1.73;;;7.10;99.90;;;;;;5013782;28;20587;-73
2023/02/03 08:37:11;;;;;;;1.00;1.00;;;7.10;99.90;;;;;;5013815;28;20171;-75
2023/02/03 08:39:37;;;;;;;1.50;1.10;;;7.10;99.90;;;;;;5045624;28;20446;-75
2023/02/03 08:42:03;;;;;;;1.70;1.40;;;7.10;99.90;;;;;;5013757;28;20201;-73
2023/02/03 08:44:30;;;;;;;1.00;1.00;;;7.10;99.90;;;;;;5013254;28;20230;-73
2023/02/03 08:46:56;;;;;;;3.80;1.33;;;7.20;99.90;;;;;;5013394;28;20261;-74
2023/02/03 08:49:24;;;;;;;1.42;1.33;;;7.20;99.90;;;;;;5013617;28;20178;-73
2023/02/03 08:51:51;;;;;;;2.13;1.45;;;7.20;99.90;;;;;;5013556;28;20270;-74
2023/02/03 08:54:17;;;;;;;1.30;1.20;;;7.20;99.90;;;;;;5013192;28;20245;-75
2023/02/03 08:56:42;;;;;;;1.00;1.00;;;7.20;99.90;;;;;;5013573;28;20167;-73
2023/02/03 08:59:08;;;;;;;2.27;1.00;;;7.20;99.90;;;;;;5013440;28;20636;-73
2023/02/03 09:01:33;;;;;;;2.23;0.90;;;7.20;99.90;;;;;;5013625;28;20182;-76
2023/02/03 09:04:00;;;;;;;1.17;1.07;;;7.20;99.90;;;;;;5013013;28;20209;-74
2023/02/03 09:06:28;;;;;;;1.27;1.20;;;7.20;99.90;;;;;;5015366;28;20552;-73
2023/02/03 09:08:54;;;;;;;1.25;1.15;;;7.20;99.90;;;;;;5018065;28;20169;-72
2023/02/03 09:11:20;;;;;;;3.97;1.17;;;7.30;99.90;;;;;;5017654;28;20174;-73
2023/02/03 09:13:47;;;;;;;1.90;1.33;;;7.30;99.90;;;;;;5016912;28;20201;-73
2023/02/03 09:16:16;;;;;;;0.75;0.75;;;7.30;99.90;;;;;;5017767;28;20170;-72
2023/02/03 09:18:42;;;;;;;1.27;0.90;;;7.40;99.90;;;;;;5017513;28;20198;-74
2023/02/03 09:21:11;;;;;;;0.88;0.88;;;7.60;99.90;;;;;;5017421;28;20221;-76
2023/02/03 09:23:38;;;;;;;1.13;1.02;;;7.70;99.90;;;;;;5016913;28;20245;-74
2023/02/03 09:26:10;;;;;;;1.25;1.15;;;7.80;99.90;;;;;;5017183;28;20496;-73
2023/02/03 09:28:36;;;;;;;0.75;0.75;;;8.00;99.90;;;;;;5049033;28;20182;-75
2023/02/03 09:31:03;;;;;;;4.03;1.30;;;8.30;99.90;;;;;;5017234;28;20595;-76
2023/02/03 09:33:29;;;;;;;1.00;0.90;;;8.50;99.90;;;;;;5015320;28;20177;-73
2023/02/03 09:35:56;;;;;;;0.83;0.83;;;8.70;99.90;;;;;;5017117;28;20178;-75
2023/02/03 09:38:24;;;;;;;1.77;0.95;;;8.80;99.90;;;;;;5016996;28;20409;-74
2023/02/03 09:41:21;;;;;;;0.90;0.90;;;8.90;99.90;;;;;;5017055;28;20540;-75
2023/02/03 09:44:07;;;;;;;0.80;0.80;;;8.90;99.90;;;;;;5014869;28;20768;-75
2023/02/03 09:46:46;;;;;;;0.47;0.47;;;9.00;99.90;;;;;;5015697;28;20213;-73
2023/02/03 09:49:31;;;;;;;0.90;0.90;;;9.30;99.90;;;;;;5017064;28;20581;-75
2023/02/03 09:52:01;;;;;;;0.73;0.70;;;9.50;99.90;;;;;;5016829;28;20171;-73
2023/02/03 09:55:00;;;;;;;1.80;0.70;;;9.70;99.90;;;;;;5016292;28;20249;-74
2023/02/03 09:57:28;;;;;;;2.42;1.50;;;9.60;99.90;;;;;;5048658;28;20667;-74
2023/02/03 09:59:57;;;;;;;0.70;0.70;;;9.60;99.90;;;;;;5048579;28;20181;-73
2023/02/03 10:02:28;;;;;;;0.60;0.60;;;9.60;99.90;;;;;;5016554;28;20391;-72
2023/02/03 10:05:19;;;;;;;2.20;1.10;;;9.70;99.90;;;;;;5016089;28;20803;-73
2023/02/03 10:08:14;;;;;;;1.43;0.80;;;10.10;99.90;;;;;;5016340;28;20423;-74
2023/02/03 10:11:17;;;;;;;3.33;0.93;;;10.60;99.90;;;;;;4997081;28;21007;-74
2023/02/03 10:13:55;;;;;;;0.83;0.83;;;11.10;99.90;;;;;;4996451;28;20504;-75
2023/02/03 10:16:30;;;;;;;2.20;1.10;;;11.40;99.90;;;;;;5011760;28;21069;-74
2023/02/03 10:18:59;;;;;;;1.17;1.07;;;11.40;99.90;;;;;;5013779;28;20412;-74
2023/02/03 10:21:42;;;;;;;3.07;0.77;;;11.40;99.90;;;;;;5014596;28;20782;-74
2023/02/03 10:24:17;;;;;;;0.80;0.80;;;11.30;99.90;;;;;;5015535;28;20468;-76
2023/02/03 10:26:43;;;;;;;0.90;0.90;;;11.20;99.90;;;;;;5016290;28;20408;-73
2023/02/03 10:29:32;;;;;;;1.57;1.47;;;11.10;99.90;;;;;;5016578;28;20432;-75
2023/02/03 10:31:58;;;;;;;1.00;1.00;;;11.10;99.90;;;;;;5016063;28;20170;-73
2023/02/03 10:34:24;;;;;;;1.37;1.27;;;10.90;99.90;;;;;;5015593;28;20439;-74
2023/02/03 10:36:53;;;;;;;3.33;1.00;;;10.90;99.90;;;;;;5016273;28;20404;-73
2023/02/03 10:39:31;;;;;;;1.20;1.10;;;10.70;99.90;;;;;;5015332;28;20770;-75
2023/02/03 10:41:57;;;;;;;1.23;0.90;;;10.40;99.90;;;;;;5015775;28;20406;-70
2023/02/03 10:44:35;;;;;;;1.13;0.63;;;10.10;99.90;;;;;;5015511;28;20469;-74
2023/02/03 10:47:00;;;;;;;0.55;0.55;;;10.00;99.90;;;;;;5016142;28;20405;-73
2023/02/03 10:49:27;;;;;;;0.53;0.53;;;10.00;99.90;;;;;;5015698;28;20168;-75
2023/02/03 10:51:58;;;;;;;0.77;0.77;;;10.00;99.90;;;;;;5015435;28;20660;-73
2023/02/03 10:54:34;;;;;;;1.20;1.20;;;10.10;99.90;;;;;;5015455;28;20598;-74
2023/02/03 10:57:03;;;;;;;0.90;0.77;;;10.40;99.90;;;;;;5014243;28;20460;-74
2023/02/03 10:59:32;;;;;;;0.97;0.90;;;10.80;99.90;;;;;;5015584;28;20432;-76
2023/02/03 11:01:58;;;;;;;1.00;1.00;;;11.10;99.90;;;;;;5016381;28;20424;-73
2023/02/03 11:04:26;;;;;;;1.10;0.97;;;11.20;99.90;;;;;;5015308;28;20468;-74
2023/02/03 11:07:20;;;;;;;2.63;0.90;;;11.10;99.90;;;;;;5014880;28;20427;-73
2023/02/03 11:09:46;;;;;;;1.00;0.90;;;11.00;99.90;;;;;;5022092;28;20498;-65
2023/02/03 11:12:17;;;;;;;1.77;0.83;;;10.90;99.90;;;;;;5023353;28;20448;-74
2023/02/03 11:14:45;;;;;;;0.70;0.70;;;10.80;99.90;;;;;;5025458;28;20285;-70
2023/02/03 11:17:31;;;;;;;0.77;0.70;;;10.70;99.90;;;;;;5023818;28;20403;-70
2023/02/03 11:20:05;;;;;;;1.30;0.73;;;10.60;99.90;;;;;;5022152;28;20414;-70
2023/02/03 11:22:35;;;;;;;2.10;1.10;;;10.40;99.90;;;;;;5021862;28;20168;-71
2023/02/03 11:25:02;;;;;;;0.60;0.60;;;10.20;99.90;;;;;;5017134;28;20422;-70
2023/02/03 11:27:30;;;;;;;0.60;0.60;;;10.10;99.90;;;;;;5015200;28;20394;-69
2023/02/03 11:30:23;;;;;;;0.50;0.50;;;10.00;99.90;;;;;;5014676;28;20179;-68
2023/02/03 11:32:50;;;;;;;0.50;0.50;;;10.00;99.90;;;;;;5014704;28;20167;-70
2023/02/03 11:35:24;;;;;;;0.52;0.50;;;9.90;99.90;;;;;;5014484;28;20746;-69
2023/02/03 11:37:53;;;;;;;0.65;0.50;;;10.00;99.90;;;;;;5018999;28;20174;-70
2023/02/03 11:40:30;;;;;;;0.82;0.82;;;10.00;99.90;;;;;;5017335;28;20255;-69
2023/02/03 11:42:55;;;;;;;0.82;0.77;;;10.00;99.90;;;;;;5014908;28;20580;-68
2023/02/03 11:45:24;;;;;;;1.10;1.10;;;10.00;99.90;;;;;;5013721;28;20253;-68
2023/02/03 11:48:23;;;;;;;2.35;0.57;;;10.00;99.90;;;;;;5014764;28;20294;-68
2023/02/03 11:51:04;;;;;;;0.50;0.50;;;9.90;99.90;;;;;;5009879;28;20650;-70
2023/02/03 11:54:07;;;;;;;1.50;0.63;;;9.90;99.90;;;;;;5014657;28;20521;-71
2023/02/03 11:56:57;;;;;;;0.40;0.40;;;9.80;99.90;;;;;;5014629;28;20175;-72
2023/02/03 11:59:29;;;;;;;0.38;0.38;;;9.70;99.90;;;;;;5013872;28;20203;-70
2023/02/03 12:02:00;;;;;;;0.60;0.40;;;9.80;99.90;;;;;;5014278;28;20178;-72
2023/02/03 12:04:55;;;;;;;0.55;0.40;;;9.70;99.90;;;;;;5010712;28;20202;-72
2023/02/03 12:07:55;;;;;;;0.63;0.63;;;9.70;99.90;;;;;;5013234;28;20171;-72
2023/02/03 12:10:27;;;;;;;0.90;0.82;;;9.70;99.90;;;;;;5001596;28;20206;-70
2023/02/03 12:13:23;;;;;;;0.60;0.60;;;9.70;99.90;;;;;;5013463;28;20576;-72
2023/02/03 12:15:58;;;;;;;0.70;0.60;;;9.70;99.90;;;;;;5010889;28;20229;-72
2023/02/03 12:18:48;;;;;;;0.98;0.43;;;9.70;99.90;;;;;;5012937;28;20174;-72
2023/02/03 12:21:44;;;;;;;0.40;0.40;;;9.60;99.90;;;;;;5011890;28;20178;-73
2023/02/03 12:24:31;;;;;;;1.75;0.88;;;9.60;99.90;;;;;;5013464;28;20214;-71
2023/02/03 12:27:27;;;;;;;0.70;0.68;;;9.60;99.90;;;;;;5013944;28;20521;-71
2023/02/03 12:30:15;;;;;;;0.70;0.70;;;9.50;99.90;;;;;;5014234;28;20167;-70
2023/02/03 12:32:50;;;;;;;0.60;0.60;;;9.50;99.90;;;;;;5006858;28;20186;-72
2023/02/03 12:35:25;;;;;;;0.40;0.40;;;9.50;99.90;;;;;;5014018;28;20189;-72
2023/02/03 12:38:16;;;;;;;0.52;0.52;;;9.40;99.90;;;;;;5014079;28;20175;-74
2023/02/03 12:40:58;;;;;;;0.50;0.40;;;9.40;99.90;;;;;;5011825;28;20170;-75
2023/02/03 12:43:36;;;;;;;0.40;0.40;;;9.30;99.90;;;;;;5013871;28;20584;-73
2023/02/03 12:46:13;;;;;;;1.48;0.40;;;9.30;99.90;;;;;;5014409;28;20170;-69
2023/02/03 12:48:55;;;;;;;0.57;0.57;;;9.30;99.90;;;;;;5014007;28;20273;-69
2023/02/03 12:51:33;;;;;;;0.30;0.30;;;9.30;99.90;;;;;;5013576;28;20175;-69
2023/02/03 12:54:21;;;;;;;0.63;0.40;;;9.20;99.90;;;;;;5013857;28;20194;-71
2023/02/03 12:56:50;;;;;;;0.50;0.40;;;9.20;99.90;;;;;;5012744;28;20173;-71
2023/02/03 12:59:21;;;;;;;0.63;0.57;;;9.20;99.90;;;;;;5013573;28;20174;-71
2023/02/03 13:01:57;;;;;;;0.40;0.40;;;9.20;99.90;;;;;;5013267;28;20178;-70
2023/02/03 13:04:43;;;;;;;0.60;0.47;;;9.20;99.90;;;;;;5013118;28;20233;-71
2023/02/03 13:07:31;;;;;;;0.75;0.75;;;9.10;99.90;;;;;;5013590;28;20171;-71
2023/02/03 13:10:13;;;;;;;0.77;0.77;;;9.20;99.90;;;;;;5012404;28;20625;-71
2023/02/03 13:12:56;;;;;;;1.02;0.60;;;9.20;99.90;;;;;;5013747;28;20162;-71
2023/02/03 13:15:27;;;;;;;0.50;0.50;;;9.10;99.90;;;;;;5013642;28;20206;-70
2023/02/03 13:18:17;;;;;;;0.73;0.73;;;9.10;99.90;;;;;;5013185;28;20259;-70
2023/02/03 13:20:44;;;;;;;1.05;0.82;;;9.10;99.90;;;;;;5013479;28;20525;-71
2023/02/03 13:23:14;;;;;;;0.77;0.50;;;9.20;99.90;;;;;;5044711;28;20568;-71
2023/02/03 13:26:06;;;;;;;0.50;0.50;;;9.10;99.90;;;;;;5013137;28;20249;-71
2023/02/03 13:29:05;;;;;;;0.50;0.50;;;9.10;99.90;;;;;;5013576;28;20564;-70
2023/02/03 13:31:51;;;;;;;1.00;1.00;;;9.10;99.90;;;;;;5013033;28;20183;-71
2023/02/03 13:34:30;;;;;;;0.63;0.63;;;9.20;99.90;;;;;;5012770;28;20377;-71
2023/02/03 13:37:11;;;;;;;1.60;0.65;;;9.20;99.90;;;;;;5013474;28;20633;-70
2023/02/03 13:39:53;;;;;;;0.50;0.50;;;9.20;99.90;;;;;;5013419;28;20510;-70
2023/02/03 13:42:31;;;;;;;0.40;0.40;;;9.20;99.90;;;;;;5012115;28;20171;-71
2023/02/03 13:45:34;;;;;;;0.50;0.50;;;9.10;99.90;;;;;;5012506;28;20220;-70
2023/02/03 13:48:15;;;;;;;0.55;0.50;;;9.10;99.90;;;;;;5013331;28;20166;-70
2023/02/03 13:50:41;;;;;;;0.93;0.80;;;9.10;99.90;;;;;;5012008;28;20181;-71
2023/02/03 13:53:13;;;;;;;0.55;0.55;;;9.10;99.90;;;;;;5015384;28;20254;-70
2023/02/03 13:55:44;;;;;;;0.80;0.80;;;9.10;99.90;;;;;;5015375;28;20664;-71
2023/02/03 13:58:29;;;;;;;0.70;0.70;;;9.10;99.90;;;;;;5016590;28;20575;-71
2023/02/03 14:00:55;;;;;;;1.00;0.50;;;9.10;99.90;;;;;;5016477;28;20536;-70
2023/02/03 14:03:23;;;;;;;1.30;0.63;;;9.10;99.90;;;;;;5016025;28;20186;-74
2023/02/03 14:05:56;;;;;;;0.55;0.55;;;9.10;99.90;;;;;;5016199;28;20441;-75
2023/02/03 14:08:25;;;;;;;0.80;0.60;;;9.10;99.90;;;;;;5015260;28;20640;-73
2023/02/03 14:11:28;;;;;;;0.47;0.47;;;9.10;99.90;;;;;;5016372;28;20166;-77
2023/02/03 14:14:07;;;;;;;0.60;0.50;;;9.10;99.90;;;;;;5015581;28;20194;-72
2023/02/03 14:16:37;;;;;;;0.55;0.55;;;9.00;99.90;;;;;;5016296;28;20194;-72
2023/02/03 14:19:04;;;;;;;1.38;1.27;;;9.10;99.90;;;;;;5015463;28;20185;-71
2023/02/03 14:21:57;;;;;;;0.55;0.55;;;9.10;99.90;;;;;;5016368;28;20552;-73
2023/02/03 14:24:36;;;;;;;1.05;1.05;;;9.10;99.90;;;;;;5014181;28;20575;-74
2023/02/03 14:27:04;;;;;;;1.00;1.00;;;9.10;99.90;;;;;;5014716;28;20670;-67
2023/02/03 14:29:31;;;;;;;0.43;0.43;;;9.10;99.90;;;;;;5015987;28;20187;-73
2023/02/03 14:32:05;;;;;;;0.50;0.50;;;9.10;99.90;;;;;;5015837;28;20193;-75
2023/02/03 14:34:45;;;;;;;0.45;0.45;;;9.10;99.90;;;;;;5015484;28;20226;-77
2023/02/03 14:37:30;;;;;;;1.30;0.60;;;9.10;99.90;;;;;;5016014;28;20178;-73
2023/02/03 14:40:47;;;;;;;0.40;0.40;;;9.10;99.90;;;;;;5002332;28;20183;-72
2023/02/03 14:43:38;;;;;;;0.80;0.80;;;9.10;99.90;;;;;;4992281;28;20650;-71
2023/02/03 14:46:41;;;;;;;0.50;0.50;;;9.20;99.90;;;;;;5013742;28;20181;-70
2023/02/03 14:49:25;;;;;;;1.27;0.52;;;9.10;99.90;;;;;;5015696;28;20166;-72
2023/02/03 14:51:50;;;;;;;0.60;0.60;;;9.10;99.90;;;;;;5015425;28;20170;-72
2023/02/03 14:54:53;;;;;;;0.50;0.50;;;9.10;99.90;;;;;;5013959;28;20342;-67
2023/02/03 14:57:31;;;;;;;0.50;0.30;;;9.10;99.90;;;;;;5015317;28;20540;-69
2023/02/03 15:00:09;;;;;;;0.60;0.60;;;9.10;99.90;;;;;;5015181;28;20171;-71
2023/02/03 15:02:35;;;;;;;0.65;0.50;;;9.10;99.90;;;;;;5013786;28;20611;-71
2023/02/03 15:05:13;;;;;;;0.50;0.50;;;9.10;99.90;;;;;;5014134;28;20205;-72
2023/02/03 15:07:45;;;;;;;0.40;0.40;;;9.10;99.90;;;;;;5015438;28;20698;-71
2023/02/03 15:10:29;;;;;;;0.65;0.65;;;9.00;99.90;;;;;;5015125;28;20181;-70
2023/02/03 15:12:57;;;;;;;0.40;0.40;;;9.00;99.90;;;;;;5015033;28;20525;-71
2023/02/03 15:15:42;;;;;;;1.10;0.88;;;9.00;99.90;;;;;;5015262;28;20191;-70
2023/02/03 15:18:26;;;;;;;0.30;0.30;;;9.00;99.90;;;;;;5013927;28;20522;-72
2023/02/03 15:20:54;;;;;;;0.30;0.30;;;9.00;99.90;;;;;;5012374;28;20207;-70
2023/02/03 15:23:26;;;;;;;0.57;0.50;;;8.90;99.90;;;;;;5013471;28;20253;-72
2023/02/03 15:26:00;;;;;;;0.50;0.50;;;9.00;99.90;;;;;;5014599;28;20625;-72
2023/02/03 15:28:27;;;;;;;1.25;0.55;;;8.90;99.90;;;;;;5014353;28;20222;-73
2023/02/03 15:31:13;;;;;;;0.70;0.57;;;8.90;99.90;;;;;;5014094;28;20171;-71
2023/02/03 15:33:43;;;;;;;0.50;0.50;;;8.90;99.90;;;;;;5014168;28;20294;-70
2023/02/03 15:36:20;;;;;;;0.70;0.65;;;8.90;99.90;;;;;;5014513;28;20201;-73
2023/02/03 15:38:54;;;;;;;0.60;0.60;;;8.90;99.90;;;;;;5013781;28;20252;-75
2023/02/03 15:41:25;;;;;;;0.40;0.40;;;8.90;99.90;;;;;;5013516;28;20194;-75
2023/02/03 15:44:07;;;;;;;0.65;0.40;;;8.90;99.90;;;;;;5014216;28;20268;-78
2023/02/03 15:46:44;;;;;;;0.30;0.30;;;8.90;99.90;;;;;;5015089;28;20633;-75
2023/02/03 15:49:19;;;;;;;0.55;0.50;;;8.90;99.90;;;;;;5014831;28;20171;-71
2023/02/03 15:51:56;;;;;;;0.40;0.40;;;8.90;99.90;;;;;;5013384;28;20225;-75
2023/02/03 15:54:31;;;;;;;0.60;0.60;;;8.90;99.90;;;;;;5014284;28;20212;-72
2023/02/03 15:57:04;;;;;;;0.45;0.45;;;8.90;99.90;;;;;;5014416;28;20158;-71
2023/02/03 15:59:35;;;;;;;0.55;0.55;;;8.90;99.90;;;;;;5014489;28;20324;-72
2023/02/03 16:02:11;;;;;;;0.93;0.52;;;8.90;99.90;;;;;;5014309;28;20171;-71
2023/02/03 16:04:36;;;;;;;0.82;0.82;;;8.80;99.90;;;;;;5013893;28;20256;-67
2023/02/03 16:07:02;;;;;;;0.70;0.70;;;8.90;99.90;;;;;;5012839;28;20569;-72
2023/02/03 16:09:29;;;;;;;0.60;0.50;;;8.90;99.90;;;;;;5014175;28;20225;-71
2023/02/03 16:12:15;;;;;;;0.40;0.40;;;8.80;99.90;;;;;;5013646;28;20365;-71
2023/02/03 16:14:42;;;;;;;0.68;0.68;;;8.80;99.90;;;;;;5045468;28;20202;-72
2023/02/03 16:17:27;;;;;;;1.02;0.50;;;8.70;99.90;;;;;;5014091;28;20662;-69
2023/02/03 16:20:11;;;;;;;1.40;0.70;;;8.70;99.90;;;;;;5013848;28;20181;-74
2023/02/03 16:23:05;;;;;;;0.63;0.50;;;8.70;99.90;;;;;;5013387;28;20659;-70
2023/02/03 16:25:32;;;;;;;0.57;0.57;;;8.70;99.90;;;;;;5012063;28;20680;-68
2023/02/03 16:53:04;;;;;;;0.75;0.60;;;8.40;99.90;;;;;;5013414;28;20185;-71
2023/02/03 16:55:30;;;;;;;0.60;0.60;;;8.40;99.90;;;;;;5012933;28;20190;-73
2023/02/03 16:57:56;;;;;;;1.00;0.80;;;8.40;99.90;;;;;;5013438;28;20533;-70
2023/02/03 17:00:22;;;;;;;0.70;0.70;;;8.40;99.90;;;;;;5013393;28;20205;-71
2023/02/03 17:02:49;;;;;;;1.13;1.02;;;8.40;99.90;;;;;;5013253;28;20177;-69
2023/02/03 17:05:15;;;;;;;0.90;0.77;;;8.40;99.90;;;;;;5013187;28;20568;-69
2023/02/03 17:07:42;;;;;;;0.70;0.70;;;8.30;99.90;;;;;;5013625;28;20261;-66
2023/02/03 17:10:08;;;;;;;0.70;0.70;;;8.30;99.90;;;;;;5013567;28;20202;-68
2023/02/03 17:12:36;;;;;;;0.73;0.63;;;8.30;99.90;;;;;;5012011;28;20179;-65
2023/02/03 17:15:03;;;;;;;0.60;0.60;;;8.40;99.90;;;;;;5012885;28;20191;-68
2023/02/03 17:17:29;;;;;;;1.40;1.30;;;8.40;99.90;;;;;;5012046;28;20205;-73
2023/02/03 17:19:55;;;;;;;0.73;0.73;;;8.40;99.90;;;;;;5013374;28;20202;-68
2023/02/03 17:22:21;;;;;;;0.70;0.70;;;8.40;99.90;;;;;;5013548;28;20440;-69
2023/02/03 17:24:47;;;;;;;0.70;0.70;;;8.40;99.90;;;;;;5012734;28;20692;-68
2023/02/03 17:27:13;;;;;;;1.47;1.37;;;8.40;99.90;;;;;;5014815;28;20405;-71
2023/02/03 17:29:38;;;;;;;1.07;0.97;;;8.40;99.90;;;;;;5017372;28;20688;-71
2023/02/03 17:32:04;;;;;;;0.67;0.50;;;8.40;99.90;;;;;;5015901;28;20202;-70
2023/02/03 17:34:30;;;;;;;0.83;0.83;;;8.40;99.90;;;;;;5016758;28;20197;-71
2023/02/03 17:36:55;;;;;;;0.60;0.60;;;8.40;99.90;;;;;;5017218;28;20405;-72
2023/02/03 17:39:21;;;;;;;0.50;0.50;;;8.40;99.90;;;;;;5017030;28;20179;-69
2023/02/03 17:41:47;;;;;;;0.80;0.60;;;8.40;99.90;;;;;;5017089;28;20183;-72
2023/02/03 17:44:12;;;;;;;0.83;0.77;;;8.50;99.90;;;;;;5016160;28;20564;-68
2023/02/03 17:46:38;;;;;;;0.70;0.70;;;8.50;99.90;;;;;;5016433;28;20171;-70
2023/02/03 17:49:03;;;;;;;0.83;0.83;;;8.40;99.90;;;;;;5015129;28;20246;-70
2023/02/03 17:51:29;;;;;;;0.90;0.90;;;8.50;99.90;;;;;;5016620;28;20170;-72
2023/02/03 17:53:56;;;;;;;0.83;0.80;;;8.50;99.90;;;;;;5016529;28;20211;-71
2023/02/03 17:56:24;;;;;;;0.70;0.65;;;8.50;99.90;;;;;;5016525;28;20513;-72
2023/02/03 17:58:58;;;;;;;1.27;1.10;;;8.50;99.90;;;;;;5016597;28;20170;-70
2023/02/03 18:01:27;;;;;;;0.80;0.80;;;8.50;99.90;;;;;;5016467;28;20257;-73
2023/02/03 18:03:58;;;;;;;0.75;0.65;;;8.50;99.90;;;;;;5016209;28;20680;-71
2023/02/03 18:06:26;;;;;;;0.65;0.65;;;8.50;99.90;;;;;;5016655;28;20529;-74
2023/02/03 18:08:53;;;;;;;0.98;0.70;;;8.50;99.90;;;;;;5016777;28;20655;-74
2023/02/03 18:11:20;;;;;;;0.60;0.60;;;8.50;99.90;;;;;;5016789;28;20186;-70
2023/02/03 18:13:48;;;;;;;0.57;0.57;;;8.60;99.90;;;;;;5014966;28;20211;-72
2023/02/03 18:16:16;;;;;;;0.95;0.85;;;8.60;99.90;;;;;;5016726;28;20536;-74
2023/02/03 18:18:42;;;;;;;0.70;0.70;;;8.60;99.90;;;;;;5016470;28;20301;-73
2023/02/03 18:21:12;;;;;;;0.75;0.70;;;8.60;99.90;;;;;;5015519;28;20650;-75
2023/02/03 18:23:38;;;;;;;0.90;0.90;;;8.60;99.90;;;;;;5015972;28;20202;-73
2023/02/03 18:26:07;;;;;;;0.70;0.70;;;8.60;99.90;;;;;;5016312;28;20285;-71
2023/02/03 18:28:34;;;;;;;0.82;0.73;;;8.60;99.90;;;;;;5015118;28;20229;-73
2023/02/03 18:31:19;;;;;;;0.95;0.95;;;8.60;99.90;;;;;;5016408;28;20174;-73
2023/02/03 18:33:46;;;;;;;0.77;0.50;;;8.70;99.90;;;;;;5016029;28;20175;-73
2023/02/03 18:36:15;;;;;;;0.52;0.52;;;8.70;99.90;;;;;;5016030;28;20273;-73
2023/02/03 18:38:42;;;;;;;0.70;0.70;;;8.70;99.90;;;;;;5014561;28;20521;-72
2023/02/03 18:41:11;;;;;;;1.00;0.85;;;8.70;99.90;;;;;;5015948;28;20197;-72
2023/02/03 18:43:37;;;;;;;0.90;0.90;;;8.70;99.90;;;;;;5013951;28;20572;-72
2023/02/03 18:46:16;;;;;;;0.60;0.60;;;8.70;99.90;;;;;;5015999;28;20687;-73
2023/02/03 18:48:43;;;;;;;0.70;0.70;;;8.70;99.90;;;;;;5016188;28;20170;-72
2023/02/03 18:51:10;;;;;;;0.90;0.90;;;8.70;99.90;;;;;;5015954;28;20244;-74
2023/02/03 18:53:37;;;;;;;0.93;0.93;;;8.80;99.90;;;;;;5014115;28;20202;-74